Currently 64°F in Beaumont, California, USA
64°F
64°F / 54°F
4 mph W
0.00"
Tuesday, January 28, 2020 2:40 PM PST

Beaumont, California Weather Summary
Last 36 Hours

Temperature Winds Hourly Humidity Dewpoint
Time Report Norm Report Norm Max Gusts Precip. Rpt. Norm Rpt. Norm Pressure
1Tue 02:40 PM  64.0°F  59°F  4 mph W  7 mph  6 mph  0.00"  31%  39%  32°F  33°F  30.09"
Tue 02:00 PM  63.9°F  59°F  4 mph SW  7 mph  13 mph  0.00"  30%  39%  31°F  33°F  30.09"
Tue 01:00 PM  64.0°F  59°F  6 mph SE  8 mph  10 mph  0.00"  28%  39%  29°F  33°F  30.12"
2Tue 12:58 PM  64.0°F  59°F  3 mph SW  7 mph  9 mph  ----  30%  39%  31°F  33°F  30.12"
Tue 12:00 PM  63.1°F  59°F  3 mph S  8 mph  12 mph  0.00"  29%  38%  29°F  32°F  30.15"
Tue 11:00 AM  62.6°F  58°F  5 mph S  7 mph  12 mph  0.00"  30%  40%  29°F  33°F  30.18"
Tue 10:00 AM  61.3°F  56°F  6 mph S  6 mph  8 mph  0.00"  31%  42%  29°F  32°F  30.21"
Tue 09:00 AM  59.5°F  55°F  4 mph E  5 mph  9 mph  0.00"  32%  43%  28°F  32°F  30.20"
Tue 08:00 AM  57.0°F  53°F  calm  3 mph  10 mph  0.00"  33%  44%  27°F  31°F  30.20"
Tue 07:00 AM  54.1°F  50°F  4 mph N  4 mph  9 mph  0.00"  30%  46%  22°F  29°F  30.19"
3Tue 06:43 AM  53.8°F  50°F  5 mph N  4 mph  9 mph  ----  31%  46%  23°F  29°F  30.19"
Tue 06:00 AM  55.0°F  50°F  5 mph N  4 mph  12 mph  0.00"  29%  46%  22°F  29°F  30.20"
Tue 05:00 AM  54.3°F  50°F  6 mph NW  4 mph  12 mph  0.00"  31%  46%  23°F  29°F  30.19"
Tue 04:00 AM  54.1°F  50°F  6 mph NE  4 mph  12 mph  0.00"  32%  47%  24°F  29°F  30.20"
Tue 03:00 AM  54.9°F  50°F  6 mph NW  4 mph  13 mph  0.00"  31%  47%  23°F  30°F  30.21"
Tue 02:00 AM  55.2°F  50°F  6 mph N  4 mph  12 mph  0.00"  31%  47%  24°F  30°F  30.21"
Tue 01:00 AM  55.6°F  50°F  6 mph N  4 mph  12 mph  0.00"  30%  47%  23°F  30°F  30.22"
Tue 12:00 AM  54.0°F  50°F  2 mph NW  4 mph  6 mph  0.00"  34%  48%  25°F  31°F  30.23"
Mon 11:00 PM  54.9°F  51°F  3 mph W  4 mph  9 mph  0.00"  34%  48%  26°F  31°F  30.24"
Mon 10:00 PM  56.1°F  51°F  4 mph N  4 mph  10 mph  0.00"  32%  48%  25°F  31°F  30.24"
Mon 09:00 PM  56.5°F  51°F  4 mph NW  4 mph  9 mph  0.00"  33%  48%  26°F  32°F  30.25"
Mon 08:00 PM  56.1°F  52°F  4 mph NW  4 mph  6 mph  0.00"  33%  47%  26°F  32°F  30.26"
Mon 07:00 PM  54.9°F  52°F  3 mph NW  4 mph  5 mph  0.00"  35%  46%  27°F  32°F  30.25"
Mon 06:00 PM  55.6°F  53°F  2 mph NW  4 mph  3 mph  0.00"  34%  45%  26°F  32°F  30.24"
Mon 05:00 PM  57.6°F  55°F  2 mph W  3 mph  9 mph  0.00"  33%  43%  27°F  32°F  30.24"
Mon 04:00 PM  61.9°F  58°F  7 mph SE  5 mph  8 mph  0.00"  28%  40%  27°F  33°F  30.22"
Mon 03:00 PM  62.8°F  59°F  5 mph SE  6 mph  9 mph  0.00"  32%  39%  31°F  33°F  30.21"
Mon 02:00 PM  62.2°F  59°F  3 mph SE  7 mph  13 mph  0.00"  27%  39%  26°F  33°F  30.22"
Mon 01:00 PM  62.1°F  59°F  2 mph S  8 mph  13 mph  0.00"  27%  39%  26°F  33°F  30.23"
Mon 12:00 PM  61.0°F  58°F  8 mph E  8 mph  14 mph  0.00"  29%  39%  27°F  32°F  30.25"
Mon 11:00 AM  60.3°F  57°F  8 mph SE  7 mph  12 mph  0.00"  32%  41%  29°F  33°F  30.27"
Mon 10:16 AM  58.8°F  56°F  9 mph SE  6 mph  20 mph  0.00"  34%  42%  29°F  32°F  30.27"
Mon 09:00 AM  56.5°F  54°F  6 mph NE  4 mph  16 mph  0.00"  37%  44%  29°F  32°F  30.24"
Mon 08:00 AM  55.0°F  52°F  5 mph NE  3 mph  10 mph  0.00"  42%  45%  31°F  31°F  30.24"
Mon 07:00 AM  47.7°F  50°F  1 mph NE  4 mph  3 mph  0.00"  55%  46%  32°F  29°F  30.22"
Mon 06:00 AM  46.6°F  49°F  2 mph N  4 mph  6 mph  0.00"  55%  47%  31°F  29°F  30.20"
Mon 05:00 AM  42.4°F  50°F  2 mph NW  4 mph  3 mph  0.00"  71%  47%  33°F  29°F  30.18"
Mon 04:00 AM  38.7°F  50°F  calm  4 mph  5 mph  0.00"  94%  47%  37°F  29°F  30.17"
Mon 03:00 AM  40.5°F  50°F  3 mph S  4 mph  3 mph  0.00"  93%  47%  39°F  29°F  30.17"

  1. Current weather data. No green row appears if the current weather data is also the high or low for the current day.
  2. High temperature for the current day.
  3. Low temperature for the current day.

The Beaumont, California weather pages are a service of WeatherCurrents. Cherry Valley is located in northern Riverside County, California, a community of the northern part of Beaumont, along the Interstate 10 highway, in the San Gorgonio pass area, between the communities of Calimesa, Banning.
Copyright ©2020  WeatherCurrents. All rights reserved. - Submit questions and comments - Privacy Policy

This page automatically refreshes every 10 minutes.